Higgins Lake, Michigan
Current Conditions -  °F | °C
As of 6:53 AM on Thursday 23 Oct 2014 (Local Time) from KHTL Reporting Station
Moderate Fog Moderate Fog  
Wind Chill: 24°   Ceiling: 200
Heat Index: 24°   Visibility: 0.25mi
Dew Point: 24°   Wind: 3mph
Humidity: 100%   Direction: 70°ENE
Pressure: 30.24"   Gusts: NA
Location:  44.48°N, 84.78°W
Report Text: KHTL 231053Z AUTO 07003KT 1/4SM FZFG VV002 M04/M04 A3024 RMK AO2 SLP253 I1000 T10441044
Loading
Personal Weather Stations






























Interactive Weather Map
Tropical Storm Tracking
New forecast layout! Learn more

10-Day Weather Forecast

Advertisements
Track Severe Weather on mobile